createdAt,value
2016-04-29T00:00:08.017Z,95.55
2016-04-29T00:00:17.424Z,96.21
2016-04-29T00:00:27.692Z,95.83
2016-04-29T00:00:37.411Z,95.98
2016-04-29T00:00:47.427Z,96.26
2016-04-29T00:00:57.427Z,96.36
2016-04-29T00:01:07.427Z,96.12
2016-04-29T00:01:17.427Z,95.93
2016-04-29T00:01:27.430Z,96.31
2016-04-29T00:01:37.445Z,95.93
2016-04-29T00:01:47.445Z,96.31
2016-04-29T00:01:57.445Z,95.93
2016-04-29T00:02:07.445Z,96.36
2016-04-29T00:02:17.461Z,95.93
2016-04-29T00:02:27.463Z,96.02
2016-04-29T00:02:37.463Z,96.17
2016-04-29T00:02:47.478Z,96.02
2016-04-29T00:02:57.478Z,96.02
2016-04-29T00:03:07.478Z,96.02
2016-04-29T00:03:17.478Z,95.93
2016-04-29T00:03:27.481Z,96.02
2016-04-29T00:03:36.731Z,96.02
2016-04-29T00:03:47.497Z,96.12
2016-04-29T00:03:57.497Z,95.93
2016-04-29T00:04:07.497Z,96.12
2016-04-29T00:04:17.497Z,96.12
2016-04-29T00:04:27.516Z,96.12
2016-04-29T00:04:37.531Z,96.02
2016-04-29T00:04:47.516Z,96.12
2016-04-29T00:04:57.531Z,96.02
2016-04-29T00:05:07.531Z,96.02
2016-04-29T00:05:17.531Z,96.02
2016-04-29T00:05:27.533Z,96.02
2016-04-29T00:05:37.533Z,96.02
2016-04-29T00:05:47.533Z,96.02
2016-04-29T00:05:57.549Z,96.12
2016-04-29T00:06:07.549Z,96.12
2016-04-29T00:06:17.565Z,95.74
2016-04-29T00:06:27.568Z,96.12
2016-04-29T00:06:37.552Z,95.74
2016-04-29T00:06:47.568Z,96.21
2016-04-29T00:06:57.568Z,96.21
2016-04-29T00:07:07.568Z,96.17
2016-04-29T00:07:17.568Z,95.74
2016-04-29T00:07:27.585Z,96.21
2016-04-29T00:07:37.585Z,95.74
2016-04-29T00:07:47.585Z,96.21
2016-04-29T00:07:57.585Z,96.31
2016-04-29T00:08:07.585Z,95.83
2016-04-29T00:08:17.601Z,95.74
2016-04-29T00:08:27.604Z,95.83
2016-04-29T00:08:37.604Z,95.74
2016-04-29T00:08:47.619Z,95.74
2016-04-29T00:08:57.619Z,95.93
2016-04-29T00:09:07.635Z,95.74
2016-04-29T00:09:17.619Z,96.21
2016-04-29T00:09:27.638Z,96.4
2016-04-29T00:09:37.638Z,95.74
2016-04-29T00:09:47.638Z,95.83
2016-04-29T00:09:57.638Z,96.12
2016-04-29T00:10:07.638Z,95.74
2016-04-29T00:10:17.638Z,95.74
2016-04-29T00:10:27.657Z,96.12
2016-04-29T00:10:37.657Z,95.93
2016-04-29T00:10:47.657Z,96.31
2016-04-29T00:10:57.657Z,96.12
2016-04-29T00:11:07.672Z,95.93
2016-04-29T00:11:17.672Z,96.12
2016-04-29T00:11:27.675Z,96.31
2016-04-29T00:11:37.675Z,96.4
2016-04-29T00:11:47.675Z,96.12
2016-04-29T00:11:57.691Z,96.31
2016-04-29T00:12:07.691Z,96.21
2016-04-29T00:12:17.691Z,96.31
2016-04-29T00:12:27.708Z,96.21
2016-04-29T00:12:37.692Z,96.12
2016-04-29T00:12:47.708Z,95.93
2016-04-29T00:12:57.708Z,96.12
2016-04-29T00:13:07.708Z,96.4
2016-04-29T00:13:17.708Z,96.21
2016-04-29T00:13:27.741Z,95.93
2016-04-29T00:13:37.741Z,96.12
2016-04-29T00:13:47.741Z,96.31
2016-04-29T00:13:57.757Z,96.21
2016-04-29T00:14:07.741Z,96.36
2016-04-29T00:14:17.960Z,96.31
2016-04-29T00:14:27.644Z,96.12
2016-04-29T00:14:37.644Z,96.31
2016-04-29T00:14:47.722Z,96.12
2016-04-29T00:14:57.815Z,96.12
2016-04-29T00:15:07.815Z,96.17
2016-04-29T00:15:19.519Z,96.12
2016-04-29T00:15:27.107Z,96.31
2016-04-29T00:15:38.514Z,96.21
2016-04-29T00:15:47.873Z,96.21
2016-04-29T00:15:57.873Z,96.21
2016-04-29T00:16:07.889Z,96.17
2016-04-29T00:16:17.873Z,96.02
2016-04-29T00:16:27.932Z,96.21
2016-04-29T00:16:37.932Z,96.12
2016-04-29T00:16:47.932Z,96.31
2016-04-29T00:16:57.932Z,96.12
2016-04-29T00:17:07.932Z,96.31
2016-04-29T00:17:17.963Z,96.12
2016-04-29T00:17:27.989Z,96.21
2016-04-29T00:17:37.989Z,96.21
2016-04-29T00:17:48.005Z,96.12
2016-04-29T00:17:58.005Z,96.21
2016-04-29T00:18:08.005Z,96.21
2016-04-29T00:18:18.005Z,96.21
2016-04-29T00:18:28.055Z,96.12
2016-04-29T00:18:38.055Z,96.12
2016-04-29T00:18:48.055Z,96.21
2016-04-29T00:18:58.070Z,96.21
2016-04-29T00:19:08.055Z,96.31
2016-04-29T00:19:18.070Z,96.21
2016-04-29T00:19:28.087Z,96.12
2016-04-29T00:19:38.087Z,96.31
2016-04-29T00:19:48.087Z,95.93
2016-04-29T00:20:06.040Z,96.31
2016-04-29T00:20:11.056Z,96.02
2016-04-29T00:20:21.025Z,96.21
2016-04-29T00:20:31.025Z,96.21
2016-04-29T00:20:41.041Z,96.31
2016-04-29T00:20:51.041Z,96.31
2016-04-29T00:21:01.041Z,96.12
2016-04-29T00:21:11.056Z,96.31
2016-04-29T00:21:21.041Z,96.31
2016-04-29T00:21:31.059Z,96.21
2016-04-29T00:21:41.074Z,96.21
2016-04-29T00:21:51.074Z,96.31
2016-04-29T00:22:01.074Z,96.12
2016-04-29T00:22:11.074Z,96.12
2016-04-29T00:22:21.090Z,96.12
2016-04-29T00:22:31.122Z,96.02
2016-04-29T00:22:41.106Z,96.31
2016-04-29T00:22:51.122Z,96.31
2016-04-29T00:23:01.122Z,96.31
2016-04-29T00:23:11.122Z,96.12
2016-04-29T00:23:21.122Z,96.12
2016-04-29T00:23:31.136Z,96.12
2016-04-29T00:23:41.151Z,96.12
2016-04-29T00:23:51.151Z,96.31
2016-04-29T00:24:01.151Z,96.12
2016-04-29T00:24:11.151Z,96.31
2016-04-29T00:24:21.151Z,96.31
2016-04-29T00:24:31.175Z,96.31
2016-04-29T00:24:41.175Z,96.31
2016-04-29T00:24:51.175Z,96.02
2016-04-29T00:25:01.175Z,96.31
2016-04-29T00:25:11.190Z,96.02
2016-04-29T00:25:21.190Z,96.21
2016-04-29T00:25:31.197Z,96.02
2016-04-29T00:25:41.197Z,96.31
2016-04-29T00:25:51.197Z,96.31
2016-04-29T00:26:01.213Z,96.21
2016-04-29T00:26:11.213Z,96.02
2016-04-29T00:26:21.213Z,96.31
2016-04-29T00:26:31.221Z,96.21
2016-04-29T00:26:41.237Z,96.02
2016-04-29T00:26:51.237Z,96.31
2016-04-29T00:27:01.237Z,96.31
2016-04-29T00:27:11.252Z,96.21
2016-04-29T00:27:21.237Z,96.21
2016-04-29T00:27:31.259Z,96.31
2016-04-29T00:27:41.259Z,96.31
2016-04-29T00:27:51.259Z,96.21
2016-04-29T00:28:01.259Z,96.02
2016-04-29T00:28:11.275Z,96.31
2016-04-29T00:28:21.275Z,95.83
2016-04-29T00:28:31.282Z,96.02
2016-04-29T00:28:41.282Z,96.02
2016-04-29T00:28:51.298Z,96.31
2016-04-29T00:29:01.298Z,96.31
2016-04-29T00:29:11.298Z,96.21
2016-04-29T00:29:21.313Z,96.02
2016-04-29T00:29:32.037Z,96.12
2016-04-29T00:29:41.240Z,96.12
2016-04-29T00:29:51.537Z,96.31
2016-04-29T00:30:02.099Z,96.21
2016-04-29T00:30:11.412Z,96.12
2016-04-29T00:30:21.396Z,96.12
2016-04-29T00:30:31.338Z,96.02
2016-04-29T00:30:42.010Z,96.31
2016-04-29T00:30:53.275Z,96.02
2016-04-29T00:31:01.353Z,96.31
2016-04-29T00:31:11.353Z,95.93
2016-04-29T00:31:21.353Z,96.12
2016-04-29T00:31:31.374Z,96.12
2016-04-29T00:31:41.358Z,96.21
2016-04-29T00:31:51.358Z,96.21
2016-04-29T00:32:01.374Z,96.12
2016-04-29T00:32:11.374Z,96.31
2016-04-29T00:32:21.374Z,96.12
2016-04-29T00:32:31.378Z,96.12
2016-04-29T00:32:41.394Z,96.12
2016-04-29T00:32:51.394Z,96.31
2016-04-29T00:33:01.409Z,96.12
2016-04-29T00:33:11.394Z,96.31
2016-04-29T00:33:21.409Z,96.31
2016-04-29T00:33:31.414Z,96.02
2016-04-29T00:33:41.414Z,96.12
2016-04-29T00:33:51.414Z,96.31
2016-04-29T00:34:01.414Z,96.12
2016-04-29T00:34:11.414Z,96.21
2016-04-29T00:34:21.430Z,96.12
2016-04-29T00:34:31.433Z,96.31
2016-04-29T00:34:41.433Z,96.21
2016-04-29T00:34:51.433Z,96.31
2016-04-29T00:35:01.449Z,96.21
2016-04-29T00:35:11.449Z,96.12
2016-04-29T00:35:21.464Z,96.31
2016-04-29T00:35:31.453Z,96.21
2016-04-29T00:35:41.484Z,96.31
2016-04-29T00:35:51.468Z,96.12
2016-04-29T00:36:01.468Z,96.12
2016-04-29T00:36:11.328Z,96.21
2016-04-29T00:36:21.468Z,96.12
2016-04-29T00:36:31.487Z,96.31
2016-04-29T00:36:41.502Z,96.12
2016-04-29T00:36:51.487Z,96.31
2016-04-29T00:37:01.487Z,95.93
2016-04-29T00:37:11.502Z,96.21
2016-04-29T00:37:21.502Z,96.31
2016-04-29T00:37:31.505Z,96.21
2016-04-29T00:37:41.521Z,96.21
2016-04-29T00:37:51.505Z,96.31
2016-04-29T00:38:01.521Z,96.21
2016-04-29T00:38:11.521Z,96.31
2016-04-29T00:38:21.552Z,96.21
2016-04-29T00:38:31.525Z,96.21
2016-04-29T00:38:41.556Z,96.21
2016-04-29T00:38:51.541Z,96.31
2016-04-29T00:39:01.541Z,96.31
2016-04-29T00:39:11.556Z,96.12
2016-04-29T00:39:21.556Z,96.12
2016-04-29T00:39:31.560Z,96.12
2016-04-29T00:39:41.576Z,96.12
2016-04-29T00:39:51.560Z,96.12
2016-04-29T00:40:01.560Z,96.21
2016-04-29T00:40:11.576Z,96.31
2016-04-29T00:40:21.576Z,96.12
2016-04-29T00:40:31.578Z,95.83
2016-04-29T00:40:41.594Z,96.12
2016-04-29T00:40:51.594Z,96.12
2016-04-29T00:41:01.594Z,96.12
2016-04-29T00:41:11.594Z,96.31
2016-04-29T00:41:21.609Z,96.12
2016-04-29T00:41:31.597Z,96.31
2016-04-29T00:41:41.612Z,96.12
2016-04-29T00:41:51.628Z,96.31
2016-04-29T00:42:01.628Z,96.31
2016-04-29T00:42:11.612Z,96.31
2016-04-29T00:42:21.612Z,96.12
2016-04-29T00:42:31.631Z,96.21
2016-04-29T00:42:41.631Z,96.31
2016-04-29T00:42:51.631Z,96.31
2016-04-29T00:43:01.631Z,96.12
2016-04-29T00:43:11.646Z,96.12
2016-04-29T00:43:21.646Z,96.12
2016-04-29T00:43:31.649Z,96.31
2016-04-29T00:43:41.665Z,96.31
2016-04-29T00:43:51.649Z,96.12
2016-04-29T00:44:01.665Z,96.21
2016-04-29T00:44:11.665Z,96.21
2016-04-29T18:19:05.781Z,96.93
2016-04-29T18:19:15.734Z,96.83
2016-04-29T18:19:25.750Z,97.02
2016-04-29T18:19:35.750Z,97.69
2016-04-29T18:19:45.750Z,97.5
2016-04-29T18:19:55.768Z,97.5
2016-04-29T18:20:05.768Z,97.5
2016-04-29T18:20:15.768Z,97.41
2016-04-29T18:20:26.498Z,97.31
2016-04-29T18:20:35.769Z,97.41
2016-04-29T18:20:45.769Z,97.22
2016-04-29T18:20:55.788Z,97.31
2016-04-29T18:21:05.788Z,97.31
2016-04-29T18:21:15.788Z,97.5
2016-04-29T18:21:25.788Z,97.6
2016-04-29T18:21:35.804Z,97.22
2016-04-29T18:21:45.804Z,97.22
2016-04-29T18:21:55.807Z,97.31
2016-04-29T18:22:05.807Z,97.41
2016-04-29T18:22:15.822Z,97.12
2016-04-29T18:22:25.822Z,97.12
2016-04-29T18:22:35.822Z,97.12
2016-04-29T18:22:45.838Z,97.12
2016-04-29T18:22:55.841Z,97.22
2016-04-29T18:23:05.841Z,97.41
2016-04-29T18:23:15.841Z,97.41
2016-04-29T18:23:25.841Z,97.41
2016-04-29T18:23:35.856Z,97.22
2016-04-29T18:23:45.872Z,97.31
2016-04-29T18:23:55.858Z,97.22
2016-04-29T18:24:05.874Z,97.22
2016-04-29T18:24:15.858Z,97.41
2016-04-29T18:24:25.858Z,97.12
2016-04-29T18:24:35.874Z,97.6
2016-04-29T18:24:45.874Z,97.69
2016-04-29T18:24:55.877Z,97.69
2016-04-29T18:25:05.893Z,97.5
2016-04-29T18:25:15.893Z,97.41
2016-04-29T18:25:25.893Z,97.22
2016-04-29T18:25:35.893Z,97.12
2016-04-29T22:35:27.746Z,99.99
2016-04-29T22:35:37.699Z,99.99
2016-04-29T22:35:47.543Z,99.99
2016-04-29T22:35:57.731Z,99.99
2016-04-29T22:36:07.717Z,99.99
2016-04-29T22:36:17.748Z,99.99
2016-04-29T22:36:27.733Z,99.99
2016-04-29T22:36:37.733Z,99.99
2016-04-29T22:36:47.576Z,99.99
2016-04-29T22:36:57.748Z,99.99
2016-04-29T22:37:07.595Z,99.99
2016-04-29T22:37:17.736Z,99.99
2016-04-29T22:37:27.751Z,99.99
2016-04-29T22:37:37.751Z,99.99
2016-04-29T22:37:47.751Z,99.99
2016-04-29T22:37:57.751Z,99.99
2016-04-29T22:38:07.770Z,99.99
2016-04-29T22:38:17.786Z,99.99
2016-04-29T22:38:27.770Z,99.99
2016-04-29T22:38:37.629Z,99.99
2016-04-29T22:38:47.786Z,99.99
2016-04-29T22:38:57.801Z,99.99
2016-04-29T22:39:07.804Z,99.99
2016-04-29T22:39:17.804Z,99.99
2016-04-29T22:39:27.789Z,99.99
2016-04-29T22:39:37.804Z,99.99
2016-04-29T22:39:47.648Z,99.99
2016-04-29T22:39:57.804Z,99.99
2016-04-29T22:40:07.823Z,99.99
2016-04-29T22:40:17.823Z,99.99
2016-04-29T22:40:27.823Z,99.99
2016-04-29T22:40:37.823Z,99.99
2016-04-29T22:40:47.838Z,99.99
2016-04-29T22:40:57.838Z,99.99
2016-04-29T22:41:07.857Z,99.99
2016-04-29T22:41:17.857Z,99.99
2016-04-29T22:41:27.857Z,99.99
2016-04-29T22:41:37.888Z,99.99
2016-04-29T22:41:47.857Z,99.99
2016-04-29T22:41:57.716Z,99.99
2016-04-29T22:42:07.875Z,99.99
2016-04-29T22:42:17.875Z,99.99
2016-04-29T22:42:27.875Z,99.99
2016-04-29T22:42:37.875Z,99.99
2016-04-29T22:42:47.890Z,99.99
2016-04-29T22:42:57.890Z,99.99
2016-04-29T22:43:07.892Z,99.99
2016-04-29T22:43:17.892Z,99.99
2016-04-29T22:43:27.892Z,99.99
2016-04-29T22:43:37.908Z,99.99
2016-04-29T22:43:47.908Z,99.99
2016-04-29T22:43:57.924Z,99.99
2016-04-29T22:44:07.927Z,99.99
2016-04-29T22:44:17.927Z,99.99
2016-04-29T22:44:27.927Z,99.99
2016-04-29T22:44:37.942Z,99.99
2016-04-29T22:44:47.927Z,99.99
2016-04-29T22:44:57.786Z,99.99
2016-04-29T22:45:07.944Z,99.99
2016-04-29T22:45:17.944Z,99.99
2016-04-29T22:45:27.788Z,99.99
2016-04-29T22:45:37.960Z,99.99
2016-04-29T22:45:47.804Z,99.99
2016-04-29T22:45:57.960Z,99.99
2016-04-29T22:46:07.804Z,99.99
2016-04-29T22:46:17.807Z,99.99
2016-04-29T22:46:27.978Z,99.99
2016-04-29T22:46:37.978Z,99.99
2016-04-29T22:46:47.994Z,99.99
2016-04-29T22:46:57.994Z,99.99
2016-04-29T22:47:07.994Z,99.99
2016-04-29T22:47:17.998Z,99.99
2016-04-29T22:47:28.014Z,99.99
2016-04-29T22:47:37.998Z,99.99
2016-04-29T22:47:48.014Z,99.99
2016-04-29T22:47:58.029Z,99.99
2016-04-29T22:48:08.029Z,99.99
2016-04-29T22:48:18.031Z,99.99
2016-04-29T22:48:28.031Z,99.99
2016-04-29T22:48:37.906Z,99.99
2016-04-29T22:48:47.891Z,99.99
2016-04-29T22:48:59.875Z,99.99
2016-04-29T22:49:08.047Z,99.99
2016-04-29T22:49:18.049Z,99.99
2016-04-29T22:49:28.065Z,99.99
2016-04-29T22:49:38.065Z,99.99
2016-04-29T22:49:48.065Z,99.99
2016-04-29T22:49:58.065Z,99.99
2016-04-29T22:50:08.065Z,99.99
2016-04-29T22:50:18.068Z,99.99
2016-04-29T22:50:28.083Z,99.99
2016-04-29T22:50:37.927Z,99.99
2016-04-29T22:50:48.099Z,99.99
2016-04-29T22:50:58.099Z,99.99
2016-04-29T22:51:08.083Z,99.99
2016-04-29T22:51:18.102Z,99.99
2016-04-29T22:51:28.102Z,99.99
2016-04-29T22:51:37.961Z,99.99
2016-04-29T22:51:48.117Z,99.99
2016-04-29T22:51:58.117Z,99.99
2016-04-29T22:52:07.977Z,99.99
2016-04-29T22:52:18.135Z,99.99
2016-04-29T22:52:28.119Z,99.99
2016-04-29T22:52:38.135Z,99.99
2016-04-29T22:52:47.994Z,99.99
2016-04-29T22:52:58.151Z,99.99
2016-04-29T22:53:08.135Z,99.99
2016-04-29T22:53:18.154Z,99.99
2016-04-29T22:53:28.154Z,99.99
2016-04-29T22:53:38.154Z,99.99
2016-04-29T22:53:48.154Z,99.99
2016-04-29T22:53:58.154Z,99.99
2016-04-29T22:54:08.185Z,99.99
2016-04-29T22:54:18.017Z,99.99
2016-04-29T22:54:28.173Z,99.99
2016-04-29T22:54:38.033Z,99.99
2016-04-29T22:54:48.189Z,99.99
2016-04-29T22:54:58.189Z,99.99
2016-04-29T22:55:08.048Z,99.99
2016-04-29T22:55:18.207Z,99.99
2016-04-29T22:55:28.207Z,99.99
2016-04-29T22:55:38.207Z,99.99
2016-04-29T22:55:48.066Z,99.99
2016-04-29T22:55:58.222Z,99.99
2016-04-29T22:56:08.238Z,99.99
2016-04-29T22:56:18.224Z,99.99
2016-04-29T22:56:28.240Z,99.99
2016-04-29T22:56:38.240Z,99.99
2016-04-29T22:56:48.240Z,99.99
2016-04-29T22:56:58.255Z,99.99
2016-04-29T22:57:08.240Z,99.99
2016-04-29T22:57:18.259Z,99.99
2016-04-29T22:57:28.103Z,99.99
2016-04-29T22:57:38.259Z,99.99
2016-04-29T22:57:48.119Z,99.99
2016-04-29T22:57:58.275Z,99.99
2016-04-29T22:58:08.259Z,99.99
2016-04-29T22:58:18.121Z,99.99
2016-04-29T22:58:28.277Z,99.99
2016-04-29T22:58:38.293Z,99.99
2016-04-29T22:58:48.293Z,99.99
2016-04-29T22:58:58.293Z,99.99
2016-04-29T22:59:08.293Z,99.99
2016-04-29T22:59:18.296Z,99.99
2016-04-29T22:59:28.296Z,99.99
2016-04-29T22:59:38.311Z,99.99
2016-04-29T22:59:48.327Z,99.99
2016-04-29T22:59:58.327Z,99.99
2016-04-29T23:00:08.327Z,99.99
2016-04-29T23:00:18.330Z,99.99
2016-04-29T23:00:28.189Z,99.99
2016-04-29T23:00:38.330Z,99.99
2016-04-29T23:00:48.330Z,99.99
2016-04-29T23:00:58.346Z,99.99
2016-04-29T23:01:08.361Z,99.99
2016-04-29T23:01:18.363Z,99.99
2016-04-29T23:01:28.348Z,99.99
2016-04-29T23:01:38.363Z,99.99
2016-04-29T23:01:48.363Z,99.99
2016-04-29T23:01:58.363Z,99.99
2016-04-29T23:02:08.379Z,99.99
2016-04-29T23:02:18.381Z,99.99
2016-04-29T23:02:28.381Z,99.99
2016-04-29T23:02:38.381Z,99.99
2016-04-29T23:02:48.381Z,99.99
2016-04-29T23:02:58.381Z,99.99
2016-04-29T23:03:08.256Z,99.99
2016-04-29T23:03:18.415Z,99.99
2016-04-29T23:03:28.478Z,99.99
2016-04-29T23:03:38.431Z,99.99
2016-04-29T23:03:48.462Z,99.99
2016-04-29T23:03:58.415Z,99.99
2016-04-29T23:04:08.415Z,99.99
2016-04-29T23:04:18.434Z,99.99
2016-04-29T23:04:28.277Z,99.99
2016-04-29T23:04:38.434Z,99.99
2016-04-29T23:04:48.434Z,99.99
2016-04-29T23:04:58.434Z,99.99
2016-04-29T23:05:08.449Z,99.99
2016-04-29T23:05:18.452Z,99.99
2016-04-29T23:05:28.468Z,99.99
2016-04-29T23:05:38.468Z,99.99
2016-04-29T23:05:48.468Z,99.99
2016-04-29T23:05:58.468Z,99.99
2016-04-29T23:06:08.468Z,99.99
2016-04-29T23:06:18.487Z,99.99
2016-04-29T23:06:28.487Z,99.99
2016-04-29T23:06:38.487Z,99.99
2016-04-29T23:06:48.487Z,99.99
2016-04-29T23:06:58.487Z,99.99
2016-04-29T23:07:08.502Z,99.99
2016-04-29T23:07:18.504Z,99.99
2016-04-29T23:07:28.504Z,99.99
2016-04-29T23:07:38.520Z,99.99
2016-04-29T23:07:48.520Z,99.99
2016-04-29T23:07:58.364Z,99.99
2016-04-29T23:08:08.379Z,99.99
2016-04-29T23:08:18.522Z,99.99
2016-04-29T23:08:28.537Z,99.99
2016-04-29T23:08:38.537Z,99.99
2016-04-29T23:08:48.397Z,99.99
2016-04-29T23:08:58.397Z,99.99
2016-04-29T23:09:08.537Z,99.99
2016-04-29T23:09:18.401Z,99.99
2016-04-29T23:09:28.557Z,99.99
2016-04-29T23:09:38.557Z,99.99
2016-04-29T23:09:48.573Z,99.99
2016-04-29T23:09:58.573Z,99.99
2016-04-29T23:10:08.573Z,99.99
2016-04-29T23:10:18.576Z,99.99
2016-04-29T23:10:28.576Z,99.99
2016-04-29T23:10:38.591Z,99.99
2016-04-29T23:10:48.591Z,99.99
2016-04-29T23:10:58.607Z,99.99
2016-04-29T23:11:08.607Z,99.99
2016-04-29T23:11:18.609Z,99.99
2016-04-29T23:11:28.609Z,99.99
2016-04-29T23:11:38.609Z,99.99
2016-04-29T23:11:48.609Z,99.99
2016-04-29T23:11:58.625Z,99.99
2016-04-29T23:12:08.625Z,99.99
2016-04-29T23:12:18.628Z,99.99
2016-04-29T23:12:28.643Z,99.99
2016-04-29T23:12:38.643Z,99.99
2016-04-29T23:12:48.487Z,99.99
2016-04-29T23:12:58.659Z,99.99
2016-04-29T23:13:08.643Z,99.99
2016-04-29T23:13:18.662Z,99.99
2016-04-29T23:13:28.662Z,99.99
2016-04-29T23:13:38.662Z,99.99
2016-04-29T23:13:48.521Z,99.99
2016-04-29T23:13:58.521Z,99.99
2016-04-29T23:14:08.677Z,99.99
2016-04-29T23:14:18.695Z,99.99
2016-04-29T23:14:28.679Z,99.99
2016-04-29T23:14:38.695Z,99.99
2016-04-29T23:14:48.695Z,99.99
2016-04-29T23:14:58.695Z,99.99
2016-04-29T23:15:08.695Z,99.99
2016-04-29T23:15:18.714Z,99.99
2016-04-29T23:15:28.557Z,99.99
2016-04-29T23:15:38.573Z,99.99
2016-04-29T23:15:48.573Z,99.99
2016-04-29T23:15:58.714Z,99.99
2016-04-29T23:16:08.729Z,99.99
2016-04-29T23:16:18.732Z,99.99
2016-04-29T23:16:28.748Z,99.99
2016-04-29T23:16:38.764Z,99.99
2016-04-29T23:16:48.748Z,99.99
2016-04-29T23:16:58.748Z,99.99
2016-04-29T23:17:08.748Z,99.99
2016-04-29T23:17:18.750Z,99.99
2016-04-29T23:17:28.766Z,99.99
2016-04-29T23:17:38.766Z,99.99
2016-04-29T23:17:48.766Z,99.99
2016-04-29T23:17:58.766Z,99.99
2016-04-29T23:18:08.781Z,99.99
2016-04-29T23:18:18.784Z,99.99
2016-04-29T23:18:28.784Z,99.99
2016-04-29T23:18:38.800Z,99.99
2016-04-29T23:18:48.659Z,99.99
2016-04-29T23:18:58.644Z,99.99
2016-04-29T23:19:08.815Z,99.99
2016-04-29T23:19:18.817Z,99.99
2016-04-29T23:19:28.817Z,99.99
2016-04-29T23:19:38.817Z,99.99
2016-04-29T23:19:48.817Z,99.99
2016-04-29T23:19:58.817Z,99.99
2016-04-29T23:20:08.833Z,99.99
2016-04-29T23:20:18.836Z,99.99
2016-04-29T23:20:28.836Z,99.99
2016-04-29T23:20:38.680Z,99.99
2016-04-29T23:20:48.852Z,99.99
2016-04-29T23:20:58.852Z,99.99
2016-04-29T23:21:08.695Z,99.99
2016-04-29T23:21:18.870Z,99.99
2016-04-29T23:21:28.714Z,99.99
2016-04-29T23:21:38.870Z,99.99
2016-04-29T23:21:48.870Z,99.99
2016-04-29T23:21:58.870Z,99.99
2016-04-29T23:22:08.870Z,99.99
2016-04-29T23:22:18.888Z,99.99
2016-04-29T23:22:28.888Z,99.99
2016-04-29T23:22:38.888Z,99.99
2016-04-29T23:22:48.904Z,99.99
2016-04-29T23:22:58.904Z,99.99
2016-04-29T23:23:08.763Z,99.99
2016-04-29T23:23:18.908Z,99.99
2016-04-29T23:23:28.908Z,99.99
2016-04-29T23:23:38.923Z,99.99
2016-04-29T23:23:48.923Z,99.99
2016-04-29T23:23:58.923Z,99.99
2016-04-29T23:24:08.954Z,99.99
2016-04-29T23:24:18.941Z,99.99
2016-04-29T23:24:28.941Z,99.99
2016-04-29T23:24:38.941Z,99.99
2016-04-29T23:24:48.941Z,99.99
2016-04-29T23:24:58.941Z,99.99
2016-04-29T23:25:08.956Z,99.99
2016-04-29T23:25:18.958Z,99.99
2016-04-29T23:25:28.958Z,99.99
2016-04-29T23:25:38.958Z,99.99
2016-04-29T23:25:48.974Z,99.99
2016-04-29T23:25:58.818Z,99.99
2016-04-29T23:26:08.974Z,99.99
2016-04-29T23:26:18.993Z,99.99
2016-04-29T23:26:28.993Z,99.99
2016-04-29T23:26:38.993Z,99.99
2016-04-29T23:26:48.852Z,99.99
2016-04-29T23:26:58.993Z,99.99
2016-04-29T23:27:08.993Z,99.99
2016-04-29T23:27:19.011Z,99.99
2016-04-29T23:27:29.027Z,99.99
2016-04-29T23:27:39.011Z,99.99
2016-04-29T23:27:49.027Z,99.99
2016-04-29T23:27:59.027Z,99.99
2016-04-29T23:28:09.027Z,99.99
2016-04-29T23:28:18.889Z,99.99
2016-04-29T23:28:29.046Z,99.99
2016-04-29T23:28:39.046Z,99.99
2016-04-29T23:28:49.046Z,99.99
2016-04-29T23:28:58.905Z,99.99
2016-04-29T23:29:09.061Z,99.99
2016-04-29T23:29:18.908Z,99.99
2016-04-29T23:29:29.064Z,99.99
2016-04-29T23:29:39.080Z,99.99
2016-04-29T23:29:49.064Z,99.99
2016-04-29T23:29:58.924Z,99.99
2016-04-29T23:30:09.095Z,99.99
2016-04-29T23:30:19.082Z,99.99
2016-04-29T23:30:29.097Z,99.99
2016-04-29T23:30:39.097Z,99.99
2016-04-29T23:30:49.097Z,99.99
2016-04-29T23:30:58.941Z,99.99
2016-04-29T23:31:09.113Z,99.99
2016-04-29T23:31:19.116Z,99.99
2016-04-29T23:31:29.116Z,99.99
2016-04-29T23:31:39.116Z,99.99
2016-04-29T23:31:49.116Z,99.99
2016-04-29T23:31:59.116Z,99.99
2016-04-29T23:32:08.975Z,99.99
2016-04-29T23:32:18.978Z,99.99
2016-04-29T23:32:28.994Z,99.99
2016-04-29T23:32:39.135Z,99.99
2016-04-29T23:32:49.150Z,99.99
2016-04-29T23:32:59.150Z,99.99
2016-04-29T23:33:09.275Z,99.99
2016-04-29T23:33:19.027Z,99.99
2016-04-29T23:33:29.012Z,99.99
2016-04-29T23:33:39.027Z,99.99
2016-04-29T23:33:49.480Z,99.99
2016-04-29T23:34:00.105Z,99.99
2016-04-29T23:34:09.184Z,99.99
2016-04-29T23:34:19.046Z,99.99
2016-04-29T23:34:29.187Z,99.99
2016-04-29T23:34:39.187Z,99.99
2016-04-29T23:34:49.202Z,99.99
2016-04-29T23:34:59.202Z,99.99
2016-04-29T23:35:09.202Z,99.99
2016-04-29T23:35:19.221Z,99.99
2016-04-29T23:35:29.236Z,99.99
2016-04-29T23:35:39.221Z,99.99
2016-04-29T23:35:49.221Z,99.99
2016-04-29T23:35:59.221Z,99.99
2016-04-29T23:36:09.236Z,99.99
2016-04-29T23:36:19.238Z,99.99
2016-04-29T23:36:29.098Z,99.99
2016-04-29T23:36:39.238Z,99.99
2016-04-29T23:36:49.254Z,99.99
2016-04-29T23:36:59.254Z,99.99
2016-04-29T23:37:09.254Z,99.99
2016-04-29T23:37:19.257Z,99.99
2016-04-29T23:37:29.273Z,99.99
2016-04-29T23:37:39.273Z,99.99
2016-04-29T23:37:49.273Z,99.99
2016-04-29T23:37:59.273Z,99.99
2016-04-29T23:38:09.132Z,99.99
2016-04-29T23:38:19.290Z,99.99
2016-04-29T23:38:29.290Z,99.99
2016-04-29T23:38:39.290Z,99.99
2016-04-29T23:38:49.306Z,99.99
2016-04-29T23:38:59.322Z,99.99
2016-04-29T23:39:09.306Z,99.99
2016-04-29T23:39:19.168Z,99.99
2016-04-29T23:39:29.309Z,99.99
2016-04-29T23:39:39.325Z,99.99
2016-04-29T23:39:49.340Z,99.99
2016-04-29T23:39:59.325Z,99.99
2016-04-29T23:40:09.356Z,99.99
2016-04-29T23:40:19.343Z,99.99
2016-04-29T23:40:29.343Z,99.99
2016-04-29T23:40:39.343Z,99.99
2016-04-29T23:40:49.203Z,99.99
2016-04-29T23:40:59.359Z,99.99
2016-04-29T23:41:09.374Z,99.99
2016-04-29T23:41:19.361Z,99.99
2016-04-29T23:41:29.376Z,99.99
2016-04-29T23:41:39.361Z,99.99
2016-04-29T23:41:49.376Z,99.99
2016-04-29T23:41:59.376Z,99.99
2016-04-29T23:42:09.376Z,99.99
2016-04-29T23:42:19.395Z,99.99
2016-04-29T23:42:29.395Z,99.99
2016-04-29T23:42:39.395Z,99.99
2016-04-29T23:42:49.395Z,99.99
2016-04-29T23:42:59.426Z,99.99
2016-04-29T23:43:09.411Z,99.99
2016-04-29T23:43:19.414Z,99.99
2016-04-29T23:43:29.414Z,99.99
2016-04-29T23:43:39.429Z,99.99
2016-04-29T23:43:49.414Z,99.99
2016-04-29T23:43:59.429Z,99.99
2016-04-29T23:44:09.445Z,99.99
2016-04-29T23:44:19.448Z,99.99
2016-04-29T23:44:29.448Z,99.99
2016-04-29T23:44:39.448Z,99.99
2016-04-29T23:44:49.464Z,99.99
2016-04-29T23:44:59.448Z,99.99
2016-04-29T23:45:09.464Z,99.99
2016-04-29T23:45:19.466Z,99.99
2016-04-29T23:45:29.466Z,99.99
2016-04-29T23:45:39.466Z,99.99
2016-04-29T23:45:49.481Z,99.99
2016-04-29T23:45:59.481Z,99.99
2016-04-29T23:46:09.497Z,99.99
2016-04-29T23:46:19.484Z,99.99
2016-04-29T23:46:29.500Z,99.99
2016-04-29T23:46:39.344Z,99.99
2016-04-29T23:46:49.500Z,99.99
2016-04-29T23:46:59.515Z,99.99
2016-04-29T23:47:09.359Z,99.99
2016-04-29T23:47:19.362Z,99.99
2016-04-29T23:47:29.518Z,99.99
2016-04-29T23:47:39.534Z,99.99
2016-04-29T23:47:49.378Z,99.99
2016-04-29T23:47:59.534Z,99.99
2016-04-29T23:48:09.565Z,99.99
2016-04-29T23:48:19.584Z,99.99
2016-04-29T23:48:29.396Z,99.99
2016-04-29T23:48:40.334Z,99.99
2016-04-29T23:48:49.568Z,99.99
2016-04-29T23:48:59.553Z,99.99
2016-04-29T23:49:09.568Z,99.99
2016-04-29T23:49:19.571Z,99.99
2016-04-29T23:49:29.571Z,99.99
2016-04-29T23:49:39.571Z,99.99
2016-04-29T23:49:49.587Z,99.99
2016-04-29T23:49:59.587Z,99.99
2016-04-29T23:50:09.587Z,99.99
2016-04-29T23:50:19.605Z,99.99
2016-04-29T23:50:29.605Z,99.99
2016-04-29T23:50:39.605Z,99.99
2016-04-29T23:50:49.605Z,99.99
2016-04-29T23:50:59.605Z,99.99
2016-04-29T23:51:09.605Z,99.99
2016-04-29T23:51:19.467Z,99.99
2016-04-29T23:51:29.623Z,99.99
2016-04-29T23:51:39.623Z,99.99
2016-04-29T23:51:49.623Z,99.99
2016-04-29T23:51:59.483Z,99.99
2016-04-29T23:52:09.639Z,99.99
2016-04-29T23:52:19.641Z,99.99
2016-04-29T23:52:29.656Z,99.99
2016-04-29T23:52:39.656Z,99.99
2016-04-29T23:52:49.656Z,99.99
2016-04-29T23:52:59.656Z,99.99
2016-04-29T23:53:09.672Z,99.99
2016-04-29T23:53:19.675Z,99.99
2016-04-29T23:53:29.675Z,99.99